Wetterdaten: Woche 13.08.12 - 19.08.12 (KW33)
Datum Zeit Temp. A. Feuchte A. Luftdruck Regen Wind Richtung Taupunkt Windchill Windben
13.08.2012 00:00 12,7 C 79 % 1016,4 hPa 0,0 l/m 0,0 km/h N 9,1 C 12,7 C 0,4 km/h
13.08.2012 01:00 12,0 C 80 % 1016,4 hPa 0,0 l/m 0,0 km/h N 8,6 C 12,0 C 0,0 km/h
13.08.2012 02:00 11,3 C 82 % 1016,3 hPa 0,0 l/m 0,0 km/h N 8,3 C 11,3 C 0,4 km/h
13.08.2012 03:00 10,8 C 83 % 1016,2 hPa 0,0 l/m 0,0 km/h N 8,0 C 10,8 C 1,6 km/h
13.08.2012 04:00 10,1 C 83 % 1016,1 hPa 0,0 l/m 0,0 km/h N 7,4 C 10,1 C 1,2 km/h
13.08.2012 05:00 9,9 C 83 % 1016,1 hPa 0,0 l/m 0,1 km/h N 7,0 C 9,9 C 3,6 km/h
13.08.2012 06:00 9,7 C 82 % 1016,3 hPa 0,0 l/m 0,2 km/h N 6,7 C 9,7 C 1,6 km/h
13.08.2012 07:00 11,3 C 81 % 1016,7 hPa 0,0 l/m 0,4 km/h N 8,0 C 11,3 C 4,8 km/h
13.08.2012 08:00 14,4 C 77 % 1016,8 hPa 0,0 l/m 3,3 km/h N 10,5 C 14,4 C 10,1 km/h
13.08.2012 09:00 17,1 C 67 % 1016,8 hPa 0,0 l/m 2,5 km/h N 10,9 C 17,1 C 8,9 km/h
13.08.2012 10:00 18,8 C 59 % 1016,5 hPa 0,0 l/m 3,2 km/h N 10,7 C 18,8 C 9,7 km/h
13.08.2012 11:00 20,4 C 52 % 1016,3 hPa 0,0 l/m 2,8 km/h N 10,1 C 20,4 C 10,1 km/h
13.08.2012 12:00 22,0 C 48 % 1015,8 hPa 0,0 l/m 3,3 km/h N 10,4 C 22,0 C 12,1 km/h
13.08.2012 13:00 21,7 C 49 % 1015,5 hPa 0,0 l/m 4,3 km/h N 10,4 C 21,7 C 14,1 km/h
13.08.2012 14:00 22,1 C 45 % 1015,1 hPa 0,0 l/m 3,8 km/h N 9,6 C 22,1 C 12,5 km/h
13.08.2012 15:00 22,3 C 44 % 1014,7 hPa 0,0 l/m 5,0 km/h N 9,6 C 22,3 C 16,9 km/h
13.08.2012 16:00 22,3 C 44 % 1014,4 hPa 0,0 l/m 5,1 km/h N 9,4 C 22,3 C 14,5 km/h
13.08.2012 17:00 22,3 C 40 % 1014,3 hPa 0,0 l/m 4,6 km/h N 8,0 C 22,3 C 12,9 km/h
13.08.2012 18:00 22,4 C 39 % 1014,2 hPa 0,0 l/m 4,3 km/h N 7,7 C 22,4 C 14,1 km/h
13.08.2012 19:00 22,1 C 43 % 1014,1 hPa 0,0 l/m 0,8 km/h N 8,9 C 22,1 C 6,4 km/h
13.08.2012 20:00 19,7 C 52 % 1014,3 hPa 0,0 l/m 0,0 km/h N 9,4 C 19,7 C 0,4 km/h
13.08.2012 21:00 16,1 C 64 % 1014,9 hPa 0,0 l/m 0,0 km/h N 9,2 C 16,1 C 0,4 km/h
13.08.2012 22:00 14,1 C 70 % 1015,3 hPa 0,0 l/m 0,0 km/h N 8,8 C 14,1 C 0,0 km/h
13.08.2012 23:00 13,1 C 74 % 1015,5 hPa 0,0 l/m 0,0 km/h N 8,5 C 13,1 C 0,8 km/h
14.08.2012 00:00 12,6 C 75 % 1015,6 hPa 0,0 l/m 0,2 km/h N 8,3 C 12,6 C 2,8 km/h
14.08.2012 01:00 12,3 C 75 % 1015,7 hPa 0,0 l/m 0,1 km/h N 7,9 C 12,3 C 2,8 km/h
14.08.2012 02:00 11,7 C 76 % 1015,5 hPa 0,0 l/m 0,3 km/h N 7,6 C 11,7 C 2,8 km/h
14.08.2012 03:00 11,4 C 76 % 1015,5 hPa 0,0 l/m 0,2 km/h N 7,4 C 11,4 C 4,4 km/h
14.08.2012 04:00 11,0 C 78 % 1015,2 hPa 0,0 l/m 0,1 km/h N 7,2 C 11,0 C 3,2 km/h
14.08.2012 05:00 10,8 C 78 % 1015,3 hPa 0,0 l/m 0,5 km/h N 7,0 C 10,8 C 5,2 km/h
14.08.2012 06:00 10,4 C 79 % 1015,5 hPa 0,0 l/m 0,2 km/h N 6,9 C 10,4 C 2,4 km/h
14.08.2012 07:00 11,5 C 78 % 1015,8 hPa 0,0 l/m 0,1 km/h N 7,8 C 11,5 C 2,4 km/h
14.08.2012 08:00 15,2 C 69 % 1015,6 hPa 0,0 l/m 0,9 km/h N 9,4 C 15,2 C 4,8 km/h
14.08.2012 09:00 18,5 C 58 % 1015,5 hPa 0,0 l/m 4,4 km/h N 10,0 C 18,4 C 10,9 km/h
14.08.2012 10:00 20,1 C 49 % 1015,5 hPa 0,0 l/m 6,1 km/h N 9,1 C 19,9 C 18,9 km/h
14.08.2012 11:00 21,0 C 43 % 1015,6 hPa 0,0 l/m 7,2 km/h N 8,0 C 20,6 C 20,9 km/h
14.08.2012 12:00 21,6 C 43 % 1015,4 hPa 0,0 l/m 7,5 km/h N 8,3 C 21,3 C 18,9 km/h
14.08.2012 13:00 22,3 C 41 % 1015,1 hPa 0,0 l/m 8,3 km/h N 8,2 C 21,7 C 20,9 km/h
14.08.2012 14:00 23,1 C 42 % 1014,5 hPa 0,0 l/m 7,6 km/h N 9,3 C 22,7 C 19,3 km/h
14.08.2012 15:00 23,6 C 40 % 1014,0 hPa 0,0 l/m 7,4 km/h N 9,0 C 23,3 C 19,3 km/h
14.08.2012 16:00 23,8 C 39 % 1013,6 hPa 0,0 l/m 7,5 km/h N 8,9 C 23,5 C 20,9 km/h
14.08.2012 17:00 24,0 C 37 % 1013,6 hPa 0,0 l/m 8,0 km/h N 8,4 C 23,6 C 22,1 km/h
14.08.2012 18:00 24,0 C 38 % 1013,6 hPa 0,0 l/m 5,1 km/h N 8,7 C 24,0 C 16,1 km/h
14.08.2012 19:00 23,5 C 40 % 1013,7 hPa 0,0 l/m 2,3 km/h N 9,0 C 23,5 C 9,3 km/h
14.08.2012 20:00 20,7 C 47 % 1014,0 hPa 0,0 l/m 0,0 km/h N 9,0 C 20,7 C 0,8 km/h
14.08.2012 21:00 17,1 C 57 % 1014,7 hPa 0,0 l/m 0,0 km/h N 8,4 C 17,1 C 0,0 km/h
14.08.2012 22:00 15,1 C 65 % 1015,3 hPa 0,0 l/m 0,0 km/h N 8,5 C 15,1 C 1,2 km/h
14.08.2012 23:00 13,8 C 70 % 1015,6 hPa 0,0 l/m 0,0 km/h N 8,4 C 13,8 C 0,8 km/h
15.08.2012 00:00 13,3 C 71 % 1015,7 hPa 0,0 l/m 0,1 km/h N 8,2 C 13,3 C 2,8 km/h
15.08.2012 01:00 13,4 C 70 % 1015,5 hPa 0,0 l/m 0,2 km/h N 8,0 C 13,4 C 4,0 km/h
15.08.2012 02:00 13,1 C 71 % 1015,2 hPa 0,0 l/m 0,3 km/h N 7,8 C 13,1 C 3,2 km/h
15.08.2012 03:00 12,6 C 72 % 1014,9 hPa 0,0 l/m 0,2 km/h N 7,6 C 12,6 C 1,6 km/h
15.08.2012 04:00 11,9 C 75 % 1014,7 hPa 0,0 l/m 0,0 km/h N 7,5 C 11,9 C 0,8 km/h
15.08.2012 05:00 11,3 C 77 % 1014,7 hPa 0,0 l/m 0,9 km/h N 7,3 C 11,3 C 5,6 km/h
15.08.2012 06:00 11,6 C 77 % 1014,9 hPa 0,0 l/m 0,8 km/h N 7,8 C 11,6 C 6,0 km/h
15.08.2012 07:00 13,2 C 75 % 1015,2 hPa 0,0 l/m 0,1 km/h N 8,9 C 13,2 C 2,8 km/h
15.08.2012 08:00 16,7 C 66 % 1015,3 hPa 0,0 l/m 0,5 km/h N 10,3 C 16,7 C 4,8 km/h
15.08.2012 09:00 20,5 C 54 % 1015,1 hPa 0,0 l/m 0,1 km/h N 10,8 C 20,5 C 2,4 km/h
15.08.2012 10:00 23,1 C 48 % 1014,9 hPa 0,0 l/m 0,6 km/h N 11,5 C 23,1 C 4,4 km/h
15.08.2012 11:00 24,3 C 46 % 1014,5 hPa 0,0 l/m 1,6 km/h N 12,0 C 24,3 C 8,0 km/h
15.08.2012 12:00 25,5 C 42 % 1014,0 hPa 0,0 l/m 2,4 km/h N 11,7 C 25,5 C 10,4 km/h
15.08.2012 13:00 25,9 C 40 % 1013,3 hPa 0,0 l/m 4,8 km/h N 11,4 C 25,9 C 17,3 km/h
15.08.2012 14:00 26,2 C 38 % 1012,9 hPa 0,0 l/m 4,6 km/h N 10,7 C 26,2 C 14,9 km/h
15.08.2012 15:00 26,1 C 36 % 1012,7 hPa 0,0 l/m 5,3 km/h N 9,7 C 26,1 C 17,7 km/h
15.08.2012 16:00 25,8 C 39 % 1012,5 hPa 0,0 l/m 4,6 km/h N 10,6 C 25,8 C 12,9 km/h
15.08.2012 17:00 26,1 C 38 % 1012,2 hPa 0,0 l/m 4,9 km/h N 10,8 C 26,1 C 14,9 km/h
15.08.2012 18:00 26,1 C 37 % 1011,9 hPa 0,0 l/m 3,0 km/h N 10,2 C 26,1 C 12,9 km/h
15.08.2012 19:00 25,8 C 40 % 1011,9 hPa 0,0 l/m 0,5 km/h N 11,1 C 25,8 C 3,6 km/h
15.08.2012 20:00 22,7 C 50 % 1012,0 hPa 0,0 l/m 0,0 km/h N 11,6 C 22,7 C 0,0 km/h
15.08.2012 21:00 19,4 C 59 % 1012,3 hPa 0,0 l/m 0,0 km/h N 11,2 C 19,4 C 0,4 km/h
15.08.2012 22:00 18,1 C 64 % 1012,5 hPa 0,0 l/m 0,5 km/h N 11,1 C 18,1 C 4,4 km/h
15.08.2012 23:00 16,8 C 68 % 1012,8 hPa 0,0 l/m 0,0 km/h N 10,7 C 16,8 C 0,4 km/h
16.08.2012 00:00 15,9 C 71 % 1013,0 hPa 0,0 l/m 0,4 km/h N 10,6 C 15,9 C 5,2 km/h
16.08.2012 01:00 15,2 C 74 % 1013,1 hPa 0,0 l/m 0,0 km/h N 10,5 C 15,2 C 0,8 km/h
16.08.2012 02:00 13,9 C 77 % 1013,0 hPa 0,0 l/m 0,0 km/h N 10,0 C 13,9 C 0,0 km/h
16.08.2012 03:00 13,2 C 80 % 1013,2 hPa 0,0 l/m 0,0 km/h N 9,8 C 13,2 C 0,0 km/h
16.08.2012 04:00 12,5 C 82 % 1013,2 hPa 0,0 l/m 0,0 km/h N 9,4 C 12,5 C 0,0 km/h
16.08.2012 05:00 12,0 C 82 % 1013,5 hPa 0,0 l/m 0,0 km/h N 9,1 C 12,0 C 0,4 km/h
16.08.2012 06:00 11,8 C 83 % 1014,0 hPa 0,0 l/m 0,0 km/h N 9,0 C 11,8 C 0,4 km/h
16.08.2012 07:00 12,9 C 82 % 1014,3 hPa 0,0 l/m 0,0 km/h N 9,9 C 12,9 C 0,0 km/h
16.08.2012 08:00 16,7 C 75 % 1014,5 hPa 0,0 l/m 0,0 km/h N 12,2 C 16,7 C 1,6 km/h
16.08.2012 09:00 20,6 C 61 % 1014,9 hPa 0,0 l/m 0,3 km/h N 12,7 C 20,6 C 4,0 km/h
16.08.2012 10:00 23,7 C 53 % 1015,0 hPa 0,0 l/m 0,9 km/h N 13,6 C 23,7 C 6,4 km/h
16.08.2012 11:00 24,4 C 51 % 1015,1 hPa 0,0 l/m 1,5 km/h N 13,6 C 24,4 C 8,1 km/h
16.08.2012 12:00 24,6 C 54 % 1015,3 hPa 0,0 l/m 4,3 km/h N 14,6 C 24,6 C 12,9 km/h
16.08.2012 13:00 25,8 C 49 % 1015,3 hPa 0,0 l/m 5,5 km/h N 14,2 C 25,8 C 14,9 km/h
16.08.2012 14:00 25,7 C 53 % 1015,2 hPa 0,0 l/m 6,1 km/h N 15,3 C 25,6 C 16,9 km/h
16.08.2012 15:00 25,8 C 53 % 1015,1 hPa 0,0 l/m 8,8 km/h N 15,6 C 25,3 C 22,1 km/h
16.08.2012 16:00 25,0 C 55 % 1015,1 hPa 0,0 l/m 10,1 km/h N 15,3 C 24,1 C 25,8 km/h
16.08.2012 17:00 25,5 C 54 % 1015,2 hPa 0,0 l/m 9,1 km/h N 15,4 C 24,9 C 26,1 km/h
16.08.2012 18:00 24,7 C 53 % 1015,6 hPa 0,0 l/m 11,2 km/h N 14,5 C 23,6 C 29,8 km/h
16.08.2012 19:00 23,0 C 61 % 1016,2 hPa 0,0 l/m 11,8 km/h N 15,0 C 21,6 C 35,8 km/h
16.08.2012 20:00 22,0 C 66 % 1016,6 hPa 0,0 l/m 12,4 km/h N 15,4 C 20,3 C 31,0 km/h
16.08.2012 21:00 21,5 C 70 % 1017,5 hPa 0,0 l/m 7,1 km/h N 15,8 C 21,2 C 22,5 km/h
16.08.2012 22:00 20,9 C 72 % 1017,9 hPa 0,0 l/m 7,0 km/h N 15,7 C 20,7 C 22,1 km/h
16.08.2012 23:00 21,0 C 72 % 1018,2 hPa 0,0 l/m 7,8 km/h N 15,6 C 20,4 C 23,3 km/h
17.08.2012 00:00 21,0 C 72 % 1018,4 hPa 0,0 l/m 6,0 km/h N 15,6 C 20,9 C 19,3 km/h
17.08.2012 01:00 20,5 C 74 % 1018,6 hPa 0,0 l/m 7,9 km/h N 15,7 C 20,0 C 21,3 km/h
17.08.2012 02:00 20,0 C 75 % 1018,5 hPa 0,0 l/m 4,2 km/h N 15,5 C 20,0 C 14,9 km/h
17.08.2012 03:00 19,5 C 76 % 1018,6 hPa 0,0 l/m 2,2 km/h N 15,2 C 19,5 C 11,3 km/h
17.08.2012 04:00 19,4 C 77 % 1018,6 hPa 0,0 l/m 7,2 km/h N 15,2 C 18,6 C 20,5 km/h
17.08.2012 05:00 19,3 C 77 % 1019,0 hPa 0,0 l/m 5,6 km/h N 15,1 C 19,2 C 14,9 km/h
17.08.2012 06:00 19,1 C 77 % 1019,1 hPa 0,0 l/m 9,4 km/h N 15,0 C 17,9 C 22,1 km/h
17.08.2012 07:00 19,2 C 76 % 1019,2 hPa 0,0 l/m 10,1 km/h N 14,9 C 17,7 C 25,3 km/h
17.08.2012 08:00 19,8 C 75 % 1019,8 hPa 0,0 l/m 7,5 km/h N 15,1 C 19,3 C 20,1 km/h
17.08.2012 09:00 20,8 C 71 % 1020,0 hPa 0,0 l/m 9,1 km/h N 15,2 C 19,7 C 22,5 km/h
17.08.2012 10:00 21,8 C 67 % 1020,1 hPa 0,0 l/m 9,0 km/h N 15,3 C 20,9 C 21,7 km/h
17.08.2012 11:00 22,4 C 66 % 1020,3 hPa 0,0 l/m 8,1 km/h N 15,8 C 21,9 C 20,9 km/h
17.08.2012 12:00 23,3 C 64 % 1020,0 hPa 0,0 l/m 6,7 km/h N 16,1 C 23,1 C 18,5 km/h
17.08.2012 13:00 24,4 C 61 % 1019,5 hPa 0,0 l/m 5,8 km/h N 16,4 C 24,4 C 14,9 km/h
17.08.2012 14:00 24,6 C 61 % 1019,4 hPa 0,0 l/m 6,0 km/h N 16,4 C 24,6 C 16,1 km/h
17.08.2012 15:00 25,2 C 57 % 1019,1 hPa 0,0 l/m 6,1 km/h N 15,9 C 25,1 C 19,7 km/h
17.08.2012 16:00 25,9 C 55 % 1018,9 hPa 0,0 l/m 6,6 km/h N 16,2 C 25,8 C 18,1 km/h
17.08.2012 17:00 26,0 C 52 % 1018,7 hPa 0,0 l/m 5,5 km/h N 15,4 C 26,0 C 17,7 km/h
17.08.2012 18:00 26,0 C 50 % 1018,6 hPa 0,0 l/m 3,4 km/h N 14,9 C 26,0 C 12,1 km/h
17.08.2012 19:00 25,6 C 51 % 1018,6 hPa 0,0 l/m 1,2 km/h N 14,7 C 25,6 C 7,2 km/h
17.08.2012 20:00 23,5 C 59 % 1018,9 hPa 0,0 l/m 0,0 km/h N 14,9 C 23,5 C 0,8 km/h
17.08.2012 21:00 20,7 C 67 % 1019,4 hPa 0,0 l/m 0,0 km/h N 14,4 C 20,7 C 0,8 km/h
17.08.2012 22:00 19,0 C 73 % 1019,9 hPa 0,0 l/m 0,1 km/h N 14,1 C 19,0 C 2,0 km/h
17.08.2012 23:00 17,8 C 77 % 1020,4 hPa 0,0 l/m 0,2 km/h N 13,7 C 17,8 C 1,2 km/h
18.08.2012 00:00 16,8 C 79 % 1020,7 hPa 0,0 l/m 0,0 km/h N 13,0 C 16,8 C 0,0 km/h
18.08.2012 01:00 16,3 C 80 % 1020,9 hPa 0,0 l/m 0,0 km/h N 12,8 C 16,3 C 0,4 km/h
18.08.2012 02:00 15,6 C 82 % 1021,0 hPa 0,0 l/m 0,0 km/h N 12,5 C 15,6 C 0,0 km/h
18.08.2012 03:00 15,0 C 82 % 1021,2 hPa 0,0 l/m 0,0 km/h N 12,0 C 15,0 C 0,0 km/h
18.08.2012 04:00 14,9 C 82 % 1021,3 hPa 0,0 l/m 0,0 km/h N 11,8 C 14,9 C 0,4 km/h
18.08.2012 05:00 14,8 C 81 % 1021,3 hPa 0,0 l/m 0,0 km/h N 11,6 C 14,8 C 0,0 km/h
18.08.2012 06:00 14,5 C 81 % 1021,7 hPa 0,0 l/m 0,0 km/h N 11,3 C 14,5 C 0,8 km/h
18.08.2012 07:00 15,3 C 81 % 1021,9 hPa 0,0 l/m 0,1 km/h N 12,1 C 15,3 C 2,8 km/h
18.08.2012 08:00 18,4 C 79 % 1022,3 hPa 0,0 l/m 0,2 km/h N 14,7 C 18,4 C 2,4 km/h
18.08.2012 09:00 21,6 C 66 % 1022,3 hPa 0,0 l/m 0,7 km/h N 15,0 C 21,6 C 6,0 km/h
18.08.2012 10:00 23,3 C 62 % 1022,4 hPa 0,0 l/m 1,6 km/h N 15,5 C 23,3 C 6,8 km/h
18.08.2012 11:00 25,1 C 56 % 1022,0 hPa 0,0 l/m 1,4 km/h N 15,7 C 25,1 C 7,6 km/h
18.08.2012 12:00 26,9 C 53 % 1021,8 hPa 0,0 l/m 2,5 km/h N 16,4 C 26,9 C 10,1 km/h
18.08.2012 13:00 28,4 C 48 % 1021,6 hPa 0,0 l/m 1,6 km/h N 16,1 C 28,4 C 8,4 km/h
18.08.2012 14:00 28,1 C 43 % 1021,3 hPa 0,0 l/m 2,7 km/h N 14,3 C 28,1 C 9,3 km/h
18.08.2012 15:00 27,8 C 42 % 1020,9 hPa 0,0 l/m 1,9 km/h N 13,6 C 27,8 C 8,0 km/h
18.08.2012 16:00 27,5 C 43 % 1020,6 hPa 0,0 l/m 1,6 km/h N 13,7 C 27,5 C 8,0 km/h
18.08.2012 17:00 27,4 C 42 % 1020,5 hPa 0,0 l/m 0,8 km/h N 13,4 C 27,4 C 7,2 km/h
18.08.2012 18:00 27,3 C 41 % 1020,5 hPa 0,0 l/m 0,4 km/h N 12,7 C 27,3 C 4,8 km/h
18.08.2012 19:00 26,6 C 46 % 1020,5 hPa 0,0 l/m 0,0 km/h N 14,1 C 26,6 C 0,4 km/h
18.08.2012 20:00 23,7 C 54 % 1020,9 hPa 0,0 l/m 0,0 km/h N 13,8 C 23,7 C 0,4 km/h
18.08.2012 21:00 20,9 C 62 % 1021,5 hPa 0,0 l/m 0,0 km/h N 13,2 C 20,9 C 1,6 km/h
18.08.2012 22:00 19,1 C 68 % 1022,0 hPa 0,0 l/m 0,0 km/h N 13,0 C 19,1 C 1,2 km/h
18.08.2012 23:00 17,8 C 72 % 1022,1 hPa 0,0 l/m 0,0 km/h N 12,7 C 17,8 C 0,8 km/h
19.08.2012 00:00 17,5 C 73 % 1022,0 hPa 0,0 l/m 0,1 km/h N 12,6 C 17,5 C 1,6 km/h
19.08.2012 01:00 17,0 C 75 % 1022,0 hPa 0,0 l/m 0,0 km/h N 12,4 C 17,0 C 0,4 km/h
19.08.2012 02:00 16,3 C 77 % 1022,0 hPa 0,0 l/m 0,1 km/h N 12,2 C 16,3 C 2,0 km/h
19.08.2012 03:00 16,2 C 77 % 1022,2 hPa 0,0 l/m 0,1 km/h N 12,1 C 16,2 C 2,8 km/h
19.08.2012 04:00 15,6 C 78 % 1022,4 hPa 0,0 l/m 0,1 km/h N 11,8 C 15,6 C 2,0 km/h
19.08.2012 05:00 14,7 C 81 % 1022,5 hPa 0,0 l/m 0,0 km/h N 11,4 C 14,7 C 0,0 km/h
19.08.2012 06:00 14,4 C 82 % 1022,9 hPa 0,0 l/m 0,0 km/h N 11,4 C 14,4 C 0,0 km/h
19.08.2012 07:00 15,0 C 82 % 1023,3 hPa 0,0 l/m 0,0 km/h N 12,0 C 15,0 C 0,8 km/h
19.08.2012 08:00 18,9 C 75 % 1023,3 hPa 0,0 l/m 0,1 km/h N 14,3 C 18,9 C 2,8 km/h
19.08.2012 09:00 23,2 C 60 % 1023,1 hPa 0,0 l/m 0,8 km/h N 14,9 C 23,2 C 6,0 km/h
19.08.2012 10:00 25,5 C 54 % 1023,2 hPa 0,0 l/m 0,8 km/h N 15,5 C 25,5 C 6,4 km/h
19.08.2012 11:00 27,5 C 49 % 1023,2 hPa 0,0 l/m 1,6 km/h N 15,8 C 27,5 C 9,3 km/h
19.08.2012 12:00 29,3 C 44 % 1022,9 hPa 0,0 l/m 1,8 km/h N 15,7 C 29,3 C 8,4 km/h
19.08.2012 13:00 30,5 C 40 % 1022,3 hPa 0,0 l/m 2,4 km/h N 15,4 C 30,5 C 11,3 km/h
19.08.2012 14:00 31,5 C 38 % 1021,9 hPa 0,0 l/m 2,7 km/h N 15,4 C 31,5 C 12,9 km/h
19.08.2012 15:00 30,8 C 38 % 1021,5 hPa 0,0 l/m 3,2 km/h N 14,7 C 30,8 C 12,5 km/h
19.08.2012 16:00 30,0 C 42 % 1021,2 hPa 0,0 l/m 1,6 km/h N 15,5 C 30,0 C 8,0 km/h
19.08.2012 17:00 29,9 C 41 % 1020,9 hPa 0,0 l/m 1,6 km/h N 15,3 C 29,9 C 9,3 km/h
19.08.2012 18:00 29,6 C 42 % 1020,4 hPa 0,0 l/m 1,5 km/h N 15,2 C 29,6 C 9,3 km/h
19.08.2012 19:00 28,8 C 43 % 1020,3 hPa 0,0 l/m 1,0 km/h N 15,0 C 28,8 C 6,4 km/h
19.08.2012 20:00 26,5 C 50 % 1020,3 hPa 0,0 l/m 0,1 km/h N 15,2 C 26,5 C 0,8 km/h
19.08.2012 21:00 22,6 C 62 % 1020,6 hPa 0,0 l/m 0,0 km/h N 14,8 C 22,6 C 0,0 km/h
19.08.2012 22:00 20,1 C 70 % 1020,5 hPa 0,0 l/m 0,0 km/h N 14,4 C 20,1 C 0,0 km/h
19.08.2012 23:00 18,5 C 75 % 1020,5 hPa 0,0 l/m 0,0 km/h N 14,0 C 18,5 C 0,0 km/h
Min-Datum _ 13.08.12 15.08.12 15.08.12 - 13.08.12 - 13.08.12 13.08.12 13.08.12
_ Min-Zeit 06:15 15:00 19:15 - 00:00 - 06:15 06:15 00:15
Minimum _ 9,5 C 35 % 1011,8 hPa - 0,0 km/h - 6,6 C 9,5 C 0,0 km/h
Max-Datum _ 19.08.12 13.08.12 19.08.12 13.08.12 16.08.12 - 18.08.12 19.08.12 16.08.12
_ Max-Zeit 14:45 02:45 07:15 00:00 19:45 - 12:45 14:45 19:30
Maximum _ 31,7 C 83 % 1023,4 hPa 0,0 l/m 14,0 km/h
N
- 17,0 C 31,7 C 40,2 km/h
N
Durchschnitt _ 20,0 C 62 % 1017,4 hPa #0,0 l/m 2,5 km/h N 11,9 C 19,9 C 8,4 km/h